Time;durP1;ratioP1;P1;durP2;ratioP2;P2;SDS_P1;SDS_P2;PMS_P1;PMS_P2;Temp;Humidity;BMP_temperature;BMP_pressure;BME280_temperature;BME280_humidity;BME280_pressure;Samples;Min_cycle;Max_cycle;Signal;HPM_P1;HPM_P2
2022/08/09 00:01:55;;;;;;;8.30;3.78;;;;;;;18.57;58.54;102891.50;5150715;28;20819;-60
2022/08/09 00:04:28;;;;;;;8.23;4.40;;;;;;;18.54;58.70;102894.47;5150695;28;20432;-60
2022/08/09 00:07:01;;;;;;;7.28;3.95;;;;;;;18.47;58.84;102896.06;5142487;28;20471;-60
2022/08/09 00:09:33;;;;;;;9.35;4.07;;;;;;;18.44;59.02;102891.88;5148475;28;20416;-54
2022/08/09 00:12:07;;;;;;;8.52;4.65;;;;;;;18.40;59.12;102896.69;5151035;28;20747;-59
2022/08/09 00:14:39;;;;;;;6.50;4.03;;;;;;;18.37;59.12;102901.50;5149971;28;20436;-59
2022/08/09 00:17:13;;;;;;;7.82;4.00;;;;;;;18.34;59.31;102899.97;5148050;28;20821;-61
2022/08/09 00:19:45;;;;;;;7.20;4.25;;;;;;;18.23;59.48;102892.13;5168264;28;20403;-60
2022/08/09 00:22:17;;;;;;;11.45;4.55;;;;;;;18.19;59.55;102888.09;5170975;28;20418;-63
2022/08/09 00:24:50;;;;;;;9.90;4.68;;;;;;;18.14;59.71;102898.38;5149317;28;20451;-60
2022/08/09 00:27:22;;;;;;;11.20;4.35;;;;;;;18.12;59.87;102895.03;5150543;28;20430;-60
2022/08/09 00:29:54;;;;;;;10.65;4.90;;;;;;;18.10;59.86;102897.00;5150192;28;20846;-60
2022/08/09 00:32:28;;;;;;;8.95;4.57;;;;;;;18.13;59.90;102894.03;5141646;28;20420;-60
2022/08/09 00:35:00;;;;;;;5.35;4.18;;;;;;;18.15;59.93;102897.41;5150240;28;20427;-60
2022/08/09 00:37:33;;;;;;;7.60;4.25;;;;;;;18.15;60.01;102900.94;5147985;28;20512;-55
2022/08/09 00:40:08;;;;;;;10.65;5.18;;;;;;;18.16;59.96;102899.09;5150124;28;20428;-60
2022/08/09 00:42:40;;;;;;;10.02;4.55;;;;;;;18.16;60.04;102899.91;5150348;28;20425;-60
2022/08/09 00:45:13;;;;;;;8.93;4.20;;;;;;;18.16;60.27;102891.91;5144898;28;20428;-59
2022/08/09 00:47:46;;;;;;;8.73;4.47;;;;;;;18.10;60.10;102883.63;5145875;28;20761;-58
2022/08/09 00:50:19;;;;;;;11.10;4.90;;;;;;;18.15;60.38;102892.06;5139112;28;20886;-59
2022/08/09 00:52:52;;;;;;;8.07;4.45;;;;;;;18.16;60.30;102896.41;5150264;28;20884;-59
2022/08/09 00:55:24;;;;;;;7.47;4.57;;;;;;;18.15;60.29;102892.91;5142581;28;20875;-59
2022/08/09 00:57:57;;;;;;;9.45;4.95;;;;;;;18.14;60.38;102885.00;5125127;28;20512;-59
2022/08/09 01:00:29;;;;;;;8.43;4.65;;;;;;;18.11;60.53;102893.34;5122456;28;20856;-59
2022/08/09 01:03:12;;;;;;;12.55;5.32;;;;;;;18.06;60.61;102887.63;5129605;28;20772;-59
2022/08/09 01:05:55;;;;;;;10.70;4.80;;;;;;;18.01;60.80;102892.56;5123866;28;20898;-59
2022/08/09 01:08:39;;;;;;;11.70;5.40;;;;;;;17.96;60.98;102883.16;5149950;28;20929;-59
2022/08/09 01:11:23;;;;;;;10.52;5.10;;;;;;;17.96;61.07;102888.50;5139112;28;20426;-59
2022/08/09 01:14:04;;;;;;;12.75;5.45;;;;;;;17.96;61.01;102896.53;5151658;28;20409;-59
2022/08/09 01:16:43;;;;;;;7.50;4.82;;;;;;;17.98;61.01;102886.50;5146784;28;20906;-58
2022/08/09 01:19:32;;;;;;;10.52;5.55;;;;;;;17.96;61.30;102891.19;5149114;28;20495;-59
2022/08/09 01:22:39;;;;;;;10.60;5.43;;;;;;;17.89;61.39;102876.69;5119420;28;20763;-58
2022/08/09 01:25:26;;;;;;;8.82;4.97;;;;;;;17.87;61.37;102881.38;5127912;28;20409;-60
2022/08/09 01:28:01;;;;;;;14.07;6.25;;;;;;;17.83;61.67;102882.63;5128376;28;20426;-60
2022/08/09 01:30:36;;;;;;;8.77;5.45;;;;;;;17.76;61.78;102884.19;5123397;28;20424;-58
2022/08/09 01:33:10;;;;;;;8.30;5.95;;;;;;;17.77;61.85;102885.91;5129401;28;20414;-59
2022/08/09 01:35:49;;;;;;;11.60;6.07;;;;;;;17.75;61.80;102882.53;5146407;28;20980;-58
2022/08/09 01:38:25;;;;;;;11.70;6.30;;;;;;;17.74;61.89;102892.38;5149304;28;20582;-58
2022/08/09 01:41:04;;;;;;;9.20;6.75;;;;;;;17.74;61.92;102888.84;5149620;28;20846;-59
2022/08/09 01:43:41;;;;;;;9.07;6.38;;;;;;;17.75;61.93;102887.88;5146974;28;20431;-59
2022/08/09 01:46:15;;;;;;;12.25;7.00;;;;;;;17.70;61.82;102887.44;5149009;28;20579;-58
2022/08/09 01:48:48;;;;;;;12.88;7.00;;;;;;;17.68;62.01;102894.75;5144715;28;20713;-58
2022/08/09 01:51:21;;;;;;;10.70;6.40;;;;;;;17.63;62.15;102894.38;5144077;28;20416;-59
2022/08/09 01:53:56;;;;;;;8.00;6.45;;;;;;;17.59;62.20;102892.97;5149244;28;20401;-58
2022/08/09 01:56:30;;;;;;;12.75;7.28;;;;;;;17.40;62.15;102875.16;5148983;28;20419;-58
2022/08/09 01:59:08;;;;;;;13.43;7.55;;;;;;;17.50;62.41;102898.22;5146598;28;20496;-55
2022/08/09 02:01:42;;;;;;;12.93;7.40;;;;;;;17.49;62.56;102896.50;5148762;28;20420;-58
2022/08/09 02:04:16;;;;;;;13.20;7.07;;;;;;;17.45;62.52;102895.13;5144751;28;20738;-59
2022/08/09 02:07:12;;;;;;;15.32;7.10;;;;;;;17.44;62.47;102887.28;5147165;28;20428;-60
2022/08/09 02:09:49;;;;;;;11.45;6.93;;;;;;;17.41;62.59;102893.75;5142189;28;20417;-58
2022/08/09 02:12:23;;;;;;;11.25;7.65;;;;;;;17.37;62.62;102883.47;5163454;28;20663;-59
2022/08/09 02:14:57;;;;;;;11.43;6.90;;;;;;;17.42;62.67;102884.72;5159794;28;20813;-59
2022/08/09 02:17:32;;;;;;;15.40;7.50;;;;;;;17.41;62.74;102893.75;5148158;28;20853;-60
2022/08/09 02:20:06;;;;;;;12.43;7.68;;;;;;;17.43;62.56;102893.59;5146788;28;20405;-54
2022/08/09 02:22:42;;;;;;;13.87;8.03;;;;;;;17.44;62.56;102893.47;5149025;28;20409;-58
2022/08/09 02:25:21;;;;;;;11.55;8.02;;;;;;;17.41;62.75;102888.41;5148071;28;20446;-59
2022/08/09 02:28:00;;;;;;;12.90;7.80;;;;;;;17.39;62.77;102885.03;5148666;28;20427;-59
2022/08/09 02:30:39;;;;;;;15.45;7.40;;;;;;;17.35;62.90;102888.97;5145874;28;20409;-53
2022/08/09 02:33:17;;;;;;;11.45;7.53;;;;;;;17.32;62.90;102878.59;5147960;28;20432;-57
2022/08/09 02:35:55;;;;;;;13.83;8.23;;;;;;;17.32;62.95;102881.25;5148599;28;20428;-59
2022/08/09 02:38:33;;;;;;;12.25;8.27;;;;;;;17.28;63.15;102882.50;5131032;28;20864;-59
2022/08/09 02:41:10;;;;;;;14.90;8.27;;;;;;;17.25;63.18;102877.50;5125265;28;20758;-59
2022/08/09 02:43:45;;;;;;;12.07;8.75;;;;;;;16.93;63.29;102843.94;5128314;28;20756;-60
2022/08/09 02:46:18;;;;;;;14.57;8.18;;;;;;;17.17;63.38;102890.69;5148383;28;20806;-59
2022/08/09 02:48:52;;;;;;;13.85;8.88;;;;;;;17.13;63.39;102892.81;5136311;28;20737;-56
2022/08/09 02:51:27;;;;;;;11.13;7.97;;;;;;;17.00;63.48;102871.75;5140262;28;20443;-58
2022/08/09 02:54:01;;;;;;;15.88;9.15;;;;;;;17.12;63.53;102883.09;5149029;28;20428;-58
2022/08/09 02:56:36;;;;;;;14.30;8.05;;;;;;;17.15;63.46;102880.16;5138535;28;20417;-58
2022/08/09 02:59:09;;;;;;;14.33;8.60;;;;;;;17.17;63.34;102880.03;5148171;28;20745;-58
2022/08/09 03:01:44;;;;;;;14.17;8.20;;;;;;;17.19;63.38;102883.41;5148367;28;20738;-58
2022/08/09 03:04:18;;;;;;;17.20;8.73;;;;;;;17.17;63.33;102874.69;5144608;28;20756;-58
2022/08/09 03:06:50;;;;;;;13.60;9.20;;;;;;;17.19;63.45;102872.72;5158019;28;20941;-59
2022/08/09 03:09:23;;;;;;;15.30;8.45;;;;;;;17.15;63.58;102874.81;5165414;28;20450;-58
2022/08/09 03:11:57;;;;;;;13.25;9.10;;;;;;;17.11;63.64;102883.25;5169408;28;20724;-58
2022/08/09 03:14:30;;;;;;;14.43;9.57;;;;;;;17.14;63.68;102889.16;5151640;28;20504;-59
2022/08/09 03:17:04;;;;;;;16.08;8.82;;;;;;;17.15;63.55;102887.31;5146829;28;20405;-52
2022/08/09 03:20:15;;;;;;;14.00;9.02;;;;;;;17.16;63.67;102883.69;5152325;28;20858;-58
2022/08/09 03:22:49;;;;;;;14.45;8.98;;;;;;;17.16;63.64;102902.38;5151656;28;20495;-58
2022/08/09 03:25:21;;;;;;;15.02;9.50;;;;;;;17.17;63.65;102890.69;5151767;28;20426;-58
2022/08/09 03:27:55;;;;;;;12.18;8.75;;;;;;;17.19;63.73;102894.09;5151701;28;20427;-58
2022/08/09 03:30:28;;;;;;;15.40;10.10;;;;;;;17.18;63.61;102890.53;5151943;28;20890;-58
2022/08/09 03:33:05;;;;;;;14.23;8.77;;;;;;;17.19;63.51;102902.09;5151194;28;20754;-58
2022/08/09 03:35:37;;;;;;;12.60;8.02;;;;;;;17.19;63.67;102904.75;5149643;28;20818;-58
2022/08/09 03:38:10;;;;;;;13.45;8.48;;;;;;;17.19;63.69;102905.59;5152066;28;20850;-59
2022/08/09 03:40:42;;;;;;;13.37;7.87;;;;;;;17.19;63.77;102910.94;5150530;28;20515;-58
2022/08/09 03:43:14;;;;;;;14.97;8.53;;;;;;;17.19;63.72;102916.28;5151151;28;20408;-57
2022/08/09 03:45:47;;;;;;;19.48;8.68;;;;;;;17.20;63.76;102912.63;5151283;28;20730;-57
2022/08/09 03:48:23;;;;;;;13.68;8.68;;;;;;;17.21;63.71;102913.44;5148515;28;20845;-58
2022/08/09 03:50:56;;;;;;;14.77;8.60;;;;;;;17.20;63.93;102911.78;5145463;28;20864;-57
2022/08/09 03:53:29;;;;;;;13.02;8.90;;;;;;;17.16;63.72;102903.22;5151265;28;20432;-58
2022/08/09 03:56:01;;;;;;;10.10;7.87;;;;;;;17.18;63.79;102913.75;5135360;28;20408;-58
2022/08/09 03:58:34;;;;;;;12.95;8.52;;;;;;;17.17;63.79;102917.41;5127813;28;20422;-57
2022/08/09 04:01:07;;;;;;;14.60;8.88;;;;;;;17.14;63.81;102910.50;5123843;28;20748;-62
2022/08/09 04:03:42;;;;;;;16.70;8.60;;;;;;;17.14;63.89;102907.84;5159716;28;20875;-59
2022/08/09 04:06:14;;;;;;;12.52;8.35;;;;;;;17.13;63.81;102916.84;5171499;28;20419;-58
2022/08/09 04:08:46;;;;;;;13.98;8.63;;;;;;;17.13;63.85;102921.34;5166754;28;20425;-53
2022/08/09 04:11:19;;;;;;;13.15;8.82;;;;;;;17.11;63.89;102921.47;5151544;28;20416;-57
2022/08/09 04:13:51;;;;;;;12.73;8.07;;;;;;;17.08;63.87;102921.75;5154136;28;20430;-58
2022/08/09 04:16:23;;;;;;;19.60;9.30;;;;;;;17.07;63.92;102921.91;5150802;28;20417;-58
2022/08/09 04:18:57;;;;;;;18.40;8.98;;;;;;;17.05;63.85;102917.53;5150837;28;20718;-58
2022/08/09 04:21:29;;;;;;;11.00;7.95;;;;;;;17.03;63.89;102922.19;5150544;28;20843;-58
2022/08/09 04:24:02;;;;;;;14.13;8.68;;;;;;;17.03;63.92;102919.53;5145931;28;20753;-58
2022/08/09 04:26:34;;;;;;;14.15;9.30;;;;;;;17.00;63.97;102916.28;5148519;28;20417;-56
2022/08/09 04:29:06;;;;;;;15.00;9.15;;;;;;;17.02;63.89;102925.00;5149176;28;20435;-59
2022/08/09 04:31:39;;;;;;;13.95;9.20;;;;;;;17.01;63.81;102934.84;5146871;28;20716;-59
2022/08/09 04:34:12;;;;;;;19.17;9.75;;;;;;;17.02;63.89;102933.84;5145442;28;20414;-58
2022/08/09 04:36:45;;;;;;;15.15;9.77;;;;;;;17.04;64.02;102934.56;5148420;28;20734;-58
2022/08/09 04:39:17;;;;;;;12.25;8.77;;;;;;;17.04;63.93;102929.22;5149855;28;20866;-58
2022/08/09 04:41:49;;;;;;;13.70;10.10;;;;;;;17.07;64.04;102937.94;5150305;28;20413;-57
2022/08/09 04:44:22;;;;;;;19.10;10.00;;;;;;;17.08;64.10;102939.63;5150201;28;20835;-57
2022/08/09 04:46:54;;;;;;;15.68;9.43;;;;;;;17.09;63.91;102935.94;5149415;28;20881;-58
2022/08/09 04:49:32;;;;;;;19.60;9.85;;;;;;;16.87;63.95;102895.22;5146605;28;20725;-58
2022/08/09 04:52:05;;;;;;;14.43;10.10;;;;;;;16.78;64.15;102878.22;5147948;28;20723;-57
2022/08/09 04:54:38;;;;;;;15.95;10.15;;;;;;;17.11;64.10;102932.16;5146031;28;20425;-58
2022/08/09 04:57:10;;;;;;;14.90;10.27;;;;;;;17.12;64.23;102935.66;5150201;28;20846;-58
2022/08/09 04:59:42;;;;;;;15.57;9.95;;;;;;;17.11;64.38;102936.66;5162924;28;20423;-58
2022/08/09 05:02:15;;;;;;;15.63;9.50;;;;;;;17.11;64.39;102944.66;5170770;28;20430;-56
2022/08/09 05:04:48;;;;;;;16.88;9.80;;;;;;;17.15;64.36;102936.22;5167023;28;20409;-57
2022/08/09 05:07:21;;;;;;;12.45;9.10;;;;;;;17.23;64.38;102948.88;5141661;28;20856;-56
2022/08/09 05:09:53;;;;;;;12.57;8.82;;;;;;;17.09;64.27;102926.09;5145963;28;20734;-57
2022/08/09 05:12:25;;;;;;;12.17;9.20;;;;;;;17.34;64.47;102940.69;5149528;28;20423;-57
2022/08/09 05:14:58;;;;;;;18.75;10.70;;;;;;;17.38;64.35;102952.78;5149966;28;20707;-57
2022/08/09 05:17:30;;;;;;;15.00;9.60;;;;;;;17.39;64.43;102949.13;5149213;28;20547;-56
2022/08/09 05:20:05;;;;;;;15.77;9.40;;;;;;;17.41;64.52;102951.66;5133207;28;20416;-56
2022/08/09 05:22:38;;;;;;;18.30;10.40;;;;;;;17.44;64.58;102956.72;5142850;28;20918;-56
2022/08/09 05:25:11;;;;;;;14.93;8.73;;;;;;;17.51;64.53;102956.00;5148544;28;20850;-58
2022/08/09 05:27:43;;;;;;;14.30;9.27;;;;;;;17.59;64.56;102954.41;5147096;28;20818;-57
2022/08/09 05:30:19;;;;;;;14.30;9.57;;;;;;;17.66;64.49;102944.88;5148919;28;20863;-54
2022/08/09 05:32:52;;;;;;;14.98;8.57;;;;;;;17.73;64.55;102951.31;5140950;28;20877;-56
2022/08/09 05:35:26;;;;;;;11.75;8.93;;;;;;;17.77;64.57;102951.84;5149747;28;20413;-57
2022/08/09 05:37:59;;;;;;;16.45;9.50;;;;;;;17.80;64.59;102947.06;5147236;28;20815;-56
2022/08/09 05:40:31;;;;;;;12.15;8.70;;;;;;;17.86;64.53;102954.50;5144685;28;20886;-57
2022/08/09 05:43:04;;;;;;;11.93;8.48;;;;;;;17.87;64.75;102948.19;5143180;28;20511;-57
2022/08/09 05:45:36;;;;;;;13.10;9.13;;;;;;;17.93;64.71;102958.31;5149075;28;20476;-57
2022/08/09 05:48:08;;;;;;;13.82;8.32;;;;;;;18.23;64.60;102960.84;5149387;28;20746;-57
2022/08/09 05:50:43;;;;;;;10.93;7.93;;;;;;;19.58;62.98;102964.31;5149492;28;20420;-57
2022/08/09 05:53:15;;;;;;;15.70;7.47;;;;;;;21.33;61.02;102959.16;5148693;28;21023;-53
2022/08/09 05:55:47;;;;;;;8.20;5.05;;;;;;;22.86;59.49;102962.47;5153663;28;20413;-57
2022/08/09 05:58:20;;;;;;;7.23;3.93;;;;;;;24.28;58.41;102972.34;5149171;28;20862;-57
2022/08/09 06:00:52;;;;;;;8.40;4.13;;;;;;;25.68;56.80;102955.56;5130934;28;20469;-57
2022/08/09 06:03:24;;;;;;;4.15;3.42;;;;;;;27.14;54.80;102966.06;5147283;28;20417;-59
2022/08/09 06:05:58;;;;;;;6.53;3.53;;;;;;;28.16;53.27;102980.06;5148524;28;20507;-58
2022/08/09 06:08:30;;;;;;;5.15;3.28;;;;;;;28.92;51.80;102979.19;5149630;28;20908;-58
2022/08/09 06:11:03;;;;;;;5.18;2.83;;;;;;;29.94;50.03;102978.88;5143020;28;20446;-40
2022/08/09 06:13:35;;;;;;;6.13;2.55;;;;;;;30.90;48.24;102975.28;5147905;28;20415;-58
2022/08/09 06:16:09;;;;;;;3.35;2.47;;;;;;;31.79;46.79;102977.06;5148918;28;20511;-58
2022/08/09 06:18:41;;;;;;;3.40;2.30;;;;;;;32.66;45.15;102976.06;5148165;28;20755;-59
2022/08/09 06:21:15;;;;;;;5.70;2.67;;;;;;;33.44;43.50;102977.84;5148066;28;20425;-58
2022/08/09 06:23:48;;;;;;;3.60;2.47;;;;;;;34.15;42.31;102979.88;5148963;28;20990;-58
2022/08/09 06:26:22;;;;;;;5.97;2.70;;;;;;;34.21;41.69;102989.81;5146156;28;20750;-57
2022/08/09 06:28:56;;;;;;;4.43;2.90;;;;;;;34.16;40.92;102984.25;5143103;28;20874;-58
2022/08/09 06:31:28;;;;;;;4.60;2.85;;;;;;;33.99;40.70;102978.84;5148759;28;20854;-58
2022/08/09 06:34:01;;;;;;;5.40;2.65;;;;;;;34.39;40.00;102977.66;5148689;28;20427;-57
2022/08/09 06:36:35;;;;;;;6.00;2.40;;;;;;;35.04;38.91;102984.88;5127847;28;20430;-53
2022/08/09 06:39:10;;;;;;;3.92;2.45;;;;;;;35.71;37.64;102988.84;5128595;28;20410;-59
2022/08/09 06:41:42;;;;;;;5.47;2.53;;;;;;;36.04;37.07;102997.78;5123711;28;20990;-58
2022/08/09 06:44:15;;;;;;;3.60;2.20;;;;;;;36.37;36.38;102999.25;5138592;28;20746;-58
2022/08/09 06:46:49;;;;;;;4.97;3.17;;;;;;;36.18;36.11;102995.34;5147945;28;20420;-58
2022/08/09 06:49:21;;;;;;;3.63;2.42;;;;;;;36.01;36.00;102999.13;5149109;28;20719;-57
2022/08/09 06:51:55;;;;;;;7.00;2.80;;;;;;;36.23;35.38;103001.69;5154236;28;20419;-57
2022/08/09 06:54:27;;;;;;;5.43;2.47;;;;;;;36.51;35.03;103010.56;5172054;28;20403;-57
2022/08/09 06:56:59;;;;;;;7.15;2.78;;;;;;;36.85;34.42;103010.84;5156559;28;20424;-56
2022/08/09 06:59:32;;;;;;;6.03;2.42;;;;;;;37.28;33.60;103011.38;5140434;28;20462;-58
2022/08/09 07:02:04;;;;;;;4.30;2.30;;;;;;;36.48;34.26;103000.06;5145565;28;20486;-51
2022/08/09 07:04:37;;;;;;;6.35;2.53;;;;;;;34.88;35.15;102997.63;5147950;28;20424;-57
2022/08/09 07:07:10;;;;;;;7.30;2.60;;;;;;;33.53;36.35;102996.63;5152295;28;20412;-57
2022/08/09 07:09:43;;;;;;;7.65;2.90;;;;;;;32.63;37.41;103010.19;5151777;28;20961;-57
2022/08/09 07:12:16;;;;;;;5.50;2.87;;;;;;;31.79;37.73;103007.94;5143938;28;20734;-57
2022/08/09 07:14:49;;;;;;;5.03;2.33;;;;;;;31.03;38.56;103006.97;5155858;28;20432;-56
2022/08/09 07:17:21;;;;;;;5.93;2.10;;;;;;;30.98;38.47;103004.13;5151156;28;20443;-55
2022/08/09 07:19:54;;;;;;;3.88;1.50;;;;;;;31.66;37.66;103003.56;5151104;28;20405;-56
2022/08/09 07:22:27;;;;;;;3.00;1.10;;;;;;;32.11;37.44;103008.34;5151780;28;20827;-57
2022/08/09 07:25:00;;;;;;;3.40;0.82;;;;;;;32.68;36.66;103001.25;5147149;28;20906;-57
2022/08/09 07:27:32;;;;;;;4.72;1.42;;;;;;;33.32;35.85;103009.16;5142821;28;20734;-58
2022/08/09 07:30:06;;;;;;;3.03;1.20;;;;;;;33.83;35.00;102999.78;5144895;28;20760;-55
2022/08/09 07:32:39;;;;;;;5.65;1.30;;;;;;;33.16;35.65;102991.66;5152220;28;20502;-57
2022/08/09 07:35:12;;;;;;;2.15;0.93;;;;;;;32.47;36.46;103003.63;5150821;28;20429;-55
2022/08/09 07:37:46;;;;;;;4.13;1.15;;;;;;;32.17;36.80;103003.00;5132595;28;20744;-55
2022/08/09 07:40:19;;;;;;;2.30;1.10;;;;;;;31.55;37.05;103003.56;5128195;28;20426;-57
2022/08/09 07:42:54;;;;;;;3.40;1.10;;;;;;;30.65;37.83;103005.44;5140378;28;20780;-54
2022/08/09 07:45:29;;;;;;;2.40;1.00;;;;;;;30.49;38.06;103011.53;5150965;28;20411;-55
2022/08/09 07:48:02;;;;;;;3.17;1.35;;;;;;;30.60;37.95;103010.78;5160576;28;20728;-56
2022/08/09 07:50:39;;;;;;;2.75;1.05;;;;;;;30.62;37.85;103011.34;5168799;28;20415;-55
2022/08/09 07:53:13;;;;;;;3.13;0.95;;;;;;;31.12;37.32;103019.19;5171336;28;20414;-55
2022/08/09 07:55:45;;;;;;;1.73;0.73;;;;;;;31.75;36.63;103008.69;5155362;28;20506;-55
2022/08/09 07:58:17;;;;;;;3.63;0.93;;;;;;;32.02;36.25;103014.44;5143917;28;20510;-55
2022/08/09 08:00:53;;;;;;;2.40;0.87;;;;;;;31.99;36.53;103010.28;5150450;28;20809;-55
2022/08/09 08:03:25;;;;;;;1.23;0.60;;;;;;;31.42;36.97;103008.22;5149963;28;20400;-56
2022/08/09 08:05:57;;;;;;;2.13;0.80;;;;;;;30.76;37.79;103012.81;5146116;28;20898;-57
2022/08/09 08:08:32;;;;;;;1.52;0.85;;;;;;;30.41;38.10;103014.59;5146218;28;20746;-57
2022/08/09 08:11:04;;;;;;;4.70;0.93;;;;;;;29.99;38.60;103000.84;5140485;28;20443;-56
2022/08/09 08:13:36;;;;;;;2.03;0.88;;;;;;;29.71;38.85;103018.53;5153128;28;20431;-55
2022/08/09 08:16:09;;;;;;;1.13;0.52;;;;;;;29.74;38.82;103018.09;5150786;28;20854;-55
2022/08/09 08:18:41;;;;;;;3.40;0.80;;;;;;;29.88;38.35;103021.50;5139810;28;20417;-54
2022/08/09 08:21:14;;;;;;;3.53;0.93;;;;;;;30.07;38.24;103022.31;5150794;28;20524;-54
2022/08/09 08:23:47;;;;;;;1.75;0.50;;;;;;;30.32;37.78;103017.66;5149496;28;20920;-54
2022/08/09 08:26:19;;;;;;;2.53;0.90;;;;;;;30.52;37.82;103016.53;5150943;28;20738;-55
2022/08/09 08:28:52;;;;;;;2.67;0.65;;;;;;;30.62;37.84;103016.81;5146164;28;20425;-54
2022/08/09 08:31:24;;;;;;;3.00;0.60;;;;;;;30.30;38.07;103013.47;5146462;28;20878;-51
2022/08/09 08:33:57;;;;;;;1.33;0.60;;;;;;;29.84;38.67;103018.41;5146297;28;20809;-50
2022/08/09 08:36:29;;;;;;;4.97;0.93;;;;;;;29.24;39.19;103012.69;5149857;28;20855;-55
2022/08/09 08:39:03;;;;;;;1.42;0.70;;;;;;;28.73;39.69;103019.09;5150360;28;20502;-54
2022/08/09 08:41:36;;;;;;;2.28;0.43;;;;;;;28.25;39.80;103016.81;5147342;28;20417;-55
2022/08/09 08:44:12;;;;;;;2.03;0.70;;;;;;;27.59;40.58;103018.63;5158096;28;20822;-54
2022/08/09 08:46:44;;;;;;;2.38;0.90;;;;;;;27.25;40.64;103005.28;5163097;28;20797;-54
2022/08/09 08:49:17;;;;;;;1.80;0.40;;;;;;;27.13;40.62;103029.47;5148916;28;20416;-53
2022/08/09 08:51:52;;;;;;;2.55;0.60;;;;;;;27.08;40.43;103015.69;5149646;28;20416;-54
2022/08/09 08:54:26;;;;;;;1.38;0.50;;;;;;;27.17;40.15;103019.06;5150276;28;20412;-56
2022/08/09 08:56:59;;;;;;;1.10;0.50;;;;;;;27.08;40.01;103021.94;5126336;28;20812;-55
2022/08/09 08:59:31;;;;;;;1.70;0.60;;;;;;;26.90;39.98;103027.13;5125215;28;20868;-55
2022/08/09 09:02:07;;;;;;;1.20;0.30;;;;;;;26.54;40.38;103022.91;5127833;28;20425;-52
2022/08/09 09:04:39;;;;;;;1.38;0.60;;;;;;;26.47;40.33;103024.69;5137890;28;20470;-55
2022/08/09 09:07:14;;;;;;;1.30;0.63;;;;;;;26.39;40.25;103027.59;5149529;28;20508;-54
2022/08/09 09:09:49;;;;;;;1.58;0.52;;;;;;;26.25;40.18;103025.88;5150107;28;20908;-57
2022/08/09 09:12:30;;;;;;;1.83;0.55;;;;;;;26.15;40.10;103021.66;5149529;28;20882;-51
2022/08/09 09:15:03;;;;;;;1.27;0.50;;;;;;;26.12;40.13;103027.47;5148757;28;20802;-53
2022/08/09 09:17:36;;;;;;;0.60;0.40;;;;;;;26.20;40.06;103030.03;5147310;28;20452;-52
2022/08/09 09:20:12;;;;;;;1.52;0.57;;;;;;;26.16;40.02;103031.44;5113596;28;20757;-55
2022/08/09 09:22:55;;;;;;;1.30;0.80;;;;;;;25.98;40.22;103025.72;5121567;28;20822;-54
2022/08/09 09:25:35;;;;;;;1.70;0.70;;;;;;;25.67;40.26;102997.16;5130154;28;20414;-53
2022/08/09 09:28:08;;;;;;;1.00;0.50;;;;;;;25.93;40.18;103039.03;5123290;28;20490;-54
2022/08/09 09:30:54;;;;;;;1.30;0.43;;;;;;;25.75;40.39;103039.50;5125370;28;20856;-55
2022/08/09 09:33:33;;;;;;;1.75;0.50;;;;;;;25.61;40.32;103032.31;5140018;28;20416;-53
2022/08/09 09:36:08;;;;;;;4.07;0.40;;;;;;;25.64;40.34;103035.47;5145334;28;20413;-53
2022/08/09 09:38:45;;;;;;;1.02;0.32;;;;;;;25.82;40.25;103031.44;5129867;28;20782;-54
2022/08/09 09:41:31;;;;;;;2.58;0.90;;;;;;;26.01;39.88;103035.31;5159518;28;20491;-53
2022/08/09 09:44:06;;;;;;;2.55;0.50;;;;;;;25.90;40.02;103034.00;5167851;28;20740;-54
2022/08/09 09:46:41;;;;;;;0.38;0.35;;;;;;;25.71;40.25;103036.34;5161521;28;20932;-54
2022/08/09 09:49:20;;;;;;;1.00;0.43;;;;;;;25.46;40.49;103032.44;5149051;28;20443;-53
2022/08/09 09:52:03;;;;;;;2.95;0.70;;;;;;;25.36;40.73;103031.91;5142584;28;20422;-55
2022/08/09 09:54:39;;;;;;;1.30;0.50;;;;;;;25.27;40.65;103034.78;5147088;28;20423;-56
2022/08/09 09:57:18;;;;;;;3.17;0.75;;;;;;;25.39;40.56;103029.66;5148274;28;20515;-53
2022/08/09 09:59:53;;;;;;;0.80;0.60;;;;;;;25.46;40.34;103030.56;5137325;28;20890;-54
2022/08/09 10:02:26;;;;;;;0.90;0.77;;;;;;;25.54;40.21;103024.16;5144929;28;20424;-53
2022/08/09 10:05:08;;;;;;;4.47;1.40;;;;;;;25.74;39.82;103033.25;5140739;28;20863;-52
2022/08/09 10:07:40;;;;;;;0.57;0.43;;;;;;;25.97;39.55;103026.75;5135500;28;20423;-53
2022/08/09 10:10:12;;;;;;;1.60;0.80;;;;;;;26.06;39.45;103025.56;5149164;28;20496;-54
2022/08/09 10:12:55;;;;;;;2.83;0.75;;;;;;;25.99;39.57;103027.41;5146785;28;20889;-54
2022/08/09 10:15:27;;;;;;;1.20;0.75;;;;;;;26.00;39.42;103020.94;5147702;28;20459;-54
2022/08/09 10:18:11;;;;;;;1.20;0.53;;;;;;;26.07;39.35;103035.34;5148821;28;20428;-52
2022/08/09 10:20:44;;;;;;;1.02;0.60;;;;;;;26.01;39.26;103033.44;5140333;28;20412;-53
2022/08/09 10:23:19;;;;;;;1.98;0.50;;;;;;;25.84;39.39;103023.97;5148995;28;20420;-51
2022/08/09 10:25:51;;;;;;;1.60;0.35;;;;;;;25.73;39.75;103026.16;5149038;28;20421;-54
2022/08/09 10:28:25;;;;;;;1.10;0.40;;;;;;;25.69;39.27;103022.19;5151024;28;20747;-53
2022/08/09 10:30:58;;;;;;;1.00;0.52;;;;;;;25.67;39.25;103024.25;5152605;28;20868;-51
2022/08/09 10:33:31;;;;;;;2.38;0.60;;;;;;;25.65;39.24;103012.78;5152645;28;20417;-47
2022/08/09 10:36:05;;;;;;;1.92;0.77;;;;;;;25.67;39.09;103018.81;5141346;28;20741;-40
2022/08/09 10:38:38;;;;;;;2.13;0.73;;;;;;;25.72;39.17;103021.78;5150546;28;20757;-54
2022/08/09 10:41:11;;;;;;;2.22;0.68;;;;;;;25.71;39.21;103009.28;5152963;28;20507;-54
2022/08/09 10:43:48;;;;;;;1.55;0.57;;;;;;;25.79;39.14;103021.81;5151764;28;20802;-55
2022/08/09 10:47:01;;;;;;;2.90;0.60;;;;;;;25.91;39.02;103016.72;5152020;28;20507;-52
2022/08/09 10:49:47;;;;;;;1.13;0.40;;;;;;;26.05;38.91;103026.59;5115714;28;20421;-40
2022/08/09 10:52:41;;;;;;;1.15;0.60;;;;;;;25.91;39.14;103014.84;5132071;28;20484;-52
2022/08/09 10:55:21;;;;;;;0.55;0.55;;;;;;;26.11;38.80;103022.28;5131981;28;20418;-51
2022/08/09 10:57:56;;;;;;;1.10;0.50;;;;;;;26.16;38.79;103009.78;5152675;28;20413;-54
2022/08/09 11:00:42;;;;;;;1.50;0.50;;;;;;;26.12;38.78;103018.50;5151864;28;20909;-56
2022/08/09 11:03:24;;;;;;;1.13;0.43;;;;;;;26.07;38.86;103013.69;5151543;28;20793;-52
2022/08/09 11:06:24;;;;;;;0.80;0.40;;;;;;;26.15;38.67;103020.81;5148596;28;20843;-51
2022/08/09 11:08:57;;;;;;;2.00;0.50;;;;;;;26.06;38.36;103022.84;5147441;28;20743;-53
2022/08/09 11:12:11;;;;;;;1.10;0.50;;;;;;;26.08;38.59;103020.78;5143719;28;20433;-50
2022/08/09 11:14:53;;;;;;;0.65;0.50;;;;;;;25.92;38.74;103027.38;5142922;28;20425;-51
2022/08/09 11:17:55;;;;;;;0.68;0.68;;;;;;;25.77;38.87;103030.16;5136067;28;20513;-54
2022/08/09 11:20:46;;;;;;;0.90;0.40;;;;;;;25.94;38.60;103022.56;5150660;28;20500;-53
2022/08/09 11:23:19;;;;;;;0.80;0.50;;;;;;;26.15;38.24;103032.47;5149100;28;20806;-53
2022/08/09 11:25:51;;;;;;;0.47;0.40;;;;;;;26.08;38.36;103014.53;5145493;28;20865;-53
2022/08/09 11:28:38;;;;;;;0.95;0.50;;;;;;;26.17;38.20;103018.75;5151777;28;21391;-52
2022/08/09 11:31:44;;;;;;;1.33;0.45;;;;;;;26.47;37.66;103010.31;5150309;28;20702;-53
2022/08/09 11:34:41;;;;;;;0.90;0.50;;;;;;;26.35;37.70;103010.88;5167677;28;20763;-52
2022/08/09 11:37:27;;;;;;;0.50;0.50;;;;;;;26.54;37.25;103014.75;5159035;28;20892;-50
2022/08/09 11:40:05;;;;;;;0.50;0.40;;;;;;;26.67;37.35;103006.66;5151103;28;20911;-53
2022/08/09 11:42:49;;;;;;;2.50;0.70;;;;;;;26.56;37.20;102990.97;5148905;28;20435;-53
2022/08/09 11:45:28;;;;;;;1.20;0.40;;;;;;;26.36;37.48;102996.31;5134773;28;20462;-53
2022/08/09 11:48:03;;;;;;;1.60;0.40;;;;;;;26.21;37.70;102999.19;5143590;28;20804;-52
2022/08/09 11:51:04;;;;;;;0.80;0.60;;;;;;;26.33;37.46;102995.91;5141258;28;20795;-52
2022/08/09 11:53:38;;;;;;;1.35;0.45;;;;;;;26.49;37.29;102990.16;5149605;28;20901;-51
2022/08/09 11:56:27;;;;;;;1.30;0.50;;;;;;;26.58;37.11;102994.34;5141713;28;20554;-51
2022/08/09 11:59:00;;;;;;;1.77;0.80;;;;;;;26.79;36.99;102989.78;5123493;28;20422;-52
2022/08/09 12:01:36;;;;;;;0.52;0.50;;;;;;;26.96;36.91;102995.66;5126508;28;20431;-51